CDT,Max TemperatureF,Mean TemperatureF,Min TemperatureF,Max Dew PointF,MeanDew PointF,Min DewpointF,Max Humidity, Mean Humidity, Min Humidity, Max Sea Level PressureIn, Mean Sea Level PressureIn, Min Sea Level PressureIn, Max VisibilityMiles, Mean VisibilityMiles, Min VisibilityMiles, Max Wind SpeedMPH, Mean Wind SpeedMPH, Max Gust SpeedMPH,PrecipitationIn, CloudCover, Events, WindDirDegrees
2013-7-1,82,69,57,56,52,48,87,58,31,30.12,30.07,30.04,10,10,8,20,9,26,0.00,0,,360
2013-7-2,82,68,55,59,52,46,87,57,30,30.14,30.09,30.05,10,9,1,12,5,16,0.01,1,,5
2013-7-3,86,72,59,56,53,48,83,57,28,30.08,30.04,29.98,10,10,10,18,6,24,0.00,2,Thunderstorm,203
2013-7-4,87,73,60,58,54,46,78,52,26,30.05,30.00,29.94,10,10,9,10,6,,0.00,0,,156
2013-7-5,91,77,64,60,58,56,75,53,34,30.00,29.95,29.89,10,10,9,15,9,21,0.00,0,,156
2013-7-6,89,78,69,66,62,59,79,60,44,29.93,29.91,29.90,10,9,7,17,10,26,0.01,3,Rain,159
2013-7-7,91,82,72,68,65,62,79,59,41,29.97,29.94,29.91,10,9,8,22,10,28,0.02,2,,173
2013-7-8,97,84,73,68,65,63,71,55,37,30.02,29.99,29.96,10,10,7,15,9,22,0.00,0,,184
2013-7-9,100,88,77,71,69,67,74,56,35,29.99,29.92,29.83,10,10,10,17,10,25,0.00,0,,183
2013-7-10,93,84,71,70,64,54,73,54,27,30.02,29.97,29.88,10,10,9,16,9,24,0.00,1,,7
2013-7-11,90,78,68,62,58,53,73,52,31,30.08,30.02,29.97,10,10,8,13,7,22,0.00,0,,86
2013-7-12,91,80,68,64,61,58,76,55,41,30.04,30.00,29.96,10,10,10,17,10,24,0.00,0,,125
2013-7-13,91,80,69,65,60,56,63,53,42,30.02,29.99,29.94,10,10,9,13,9,20,0.00,0,,135
2013-7-14,89,77,66,62,58,53,81,54,32,30.10,30.03,29.99,10,10,9,18,8,24,0.00,1,,106
2013-7-15,90,79,68,66,64,60,87,61,40,30.17,30.13,30.09,10,10,5,13,6,18,0.00,2,,105
2013-7-16,93,82,71,68,65,61,87,60,35,30.25,30.21,30.17,10,10,10,9,3,16,0.00,2,,151
2013-7-17,93,82,71,70,68,65,88,66,39,30.34,30.26,30.18,10,8,1,10,4,,0.00,1,,148
2013-7-18,97,84,71,69,65,61,87,57,32,30.21,30.11,29.98,10,9,2,13,5,23,0.00,0,,193
2013-7-19,99,86,73,67,63,60,73,49,29,29.99,29.93,29.84,10,10,10,16,8,22,0.00,1,,224
2013-7-20,91,81,73,71,68,66,93,75,46,29.96,29.90,29.85,10,9,3,17,5,,0.30,3,Rain-Thunderstorm,283
2013-7-21,89,79,70,70,68,65,93,76,49,29.94,29.87,29.79,10,10,6,12,6,,0.01,3,,194
2013-7-22,95,81,69,71,68,63,93,68,41,29.85,29.80,29.76,10,10,6,16,7,18,0.00,0,,187
2013-7-23,89,80,71,72,68,63,90,69,49,29.94,29.86,29.80,10,10,8,15,7,23,0.00,1,,45
2013-7-24,88,77,66,60,57,53,73,53,30,30.04,29.99,29.92,10,10,9,15,8,20,0.00,1,,31
2013-7-25,86,75,66,67,62,58,84,67,40,30.09,30.05,30.00,10,10,10,12,5,,0.03,3,Rain,133
2013-7-26,89,77,66,67,62,52,87,65,37,30.06,30.01,29.97,10,10,10,20,7,25,0.01,4,Rain,316
2013-7-27,80,66,55,57,52,46,90,64,32,30.11,30.05,29.99,10,10,10,13,7,17,0.00,1,,326
2013-7-28,75,65,57,57,53,46,93,64,39,30.06,30.04,30.03,10,10,10,10,3,,0.00,4,,225
2013-7-29,73,66,61,70,64,55,96,88,70,30.08,30.02,29.95,10,10,6,13,7,21,0.66,7,Rain-Thunderstorm,106
2013-7-30,84,76,71,72,71,69,97,85,67,30.06,30.00,29.96,10,10,3,20,7,24,0.57,7,Rain-Thunderstorm,345
2013-7-31,86,76,69,70,66,62,94,75,46,30.14,30.08,30.02,10,10,10,13,5,16,0.00,4,,1